Date,TemperatureHighF,TemperatureAvgF,TemperatureLowF,DewpointHighF,DewpointAvgF,DewpointLowF,HumidityHigh,HumidityAvg,HumidityLow,PressureMaxIn,PressureMinIn,WindSpeedMaxMPH,WindSpeedAvgMPH,GustSpeedMaxMPH,PrecipitationSumIn
2013-5-1,64.6,52.9,42.6,50.8,44.4,36.7,93,75,38,30.44,30.27,8,3,15,0.00
2013-5-2,67.0,53.8,41.0,49.1,43.9,39.7,97,72,45,30.43,30.31,5,1,11,0.00
2013-5-3,58.7,51.3,42.9,46.6,43.4,40.7,93,76,56,30.41,30.32,9,3,19,0.00
2013-5-4,66.7,52.5,42.5,48.7,43.6,40.2,96,74,46,30.34,30.22,7,2,13,0.00
2013-5-5,60.4,50.3,43.4,47.2,43.0,40.1,93,77,59,30.25,30.19,8,2,13,0.00
2013-5-6,62.7,53.0,44.1,56.2,50.2,42.5,96,90,77,30.20,30.10,8,3,13,0.00
2013-5-7,64.3,57.5,52.6,59.7,55.9,51.4,100,94,82,30.11,30.00,7,3,11,0.09
2013-5-8,71.7,61.4,56.6,62.1,56.9,54.1,98,86,58,30.02,29.94,5,1,8,0.10
2013-5-9,71.0,62.8,56.7,60.0,57.7,55.3,97,84,65,29.98,29.90,7,2,10,0.04
2013-5-10,76.3,62.5,56.6,64.1,58.9,54.9,97,89,62,30.01,29.96,4,0,6,0.00
2013-5-11,66.1,64.7,62.8,63.9,62.6,61.3,95,93,91,29.75,29.71,4,1,8,1.28
2013-5-12,66.1,60.8,51.9,61.2,48.2,32.8,96,67,35,29.97,29.68,8,3,18,0.11
2013-5-13,58.9,51.3,39.2,41.1,34.4,28.8,92,55,36,30.12,29.97,8,3,18,0.00
2013-5-14,59.8,50.0,37.7,47.6,36.0,30.6,88,62,35,30.18,30.07,8,2,12,0.00
2013-5-15,72.8,62.6,53.1,61.2,54.6,46.8,87,76,59,30.10,29.70,6,2,9,0.00
2013-5-16,83.2,71.9,61.9,66.2,61.6,55.4,95,72,42,29.83,29.70,4,1,7,0.00
2013-5-17,77.3,67.2,55.0,61.1,51.0,42.2,90,59,31,30.18,29.83,6,2,9,0.00
2013-5-18,72.0,62.2,55.3,57.9,55.0,48.8,94,78,57,30.27,30.17,4,0,7,0.11
2013-5-19,64.7,61.1,58.0,62.9,59.9,56.9,98,96,94,30.25,30.13,2,0,8,0.26
2013-5-20,80.2,70.3,62.8,70.9,66.5,61.6,97,88,71,30.14,29.98,4,1,6,0.00
2013-5-21,81.0,71.6,65.2,71.1,67.3,63.8,97,87,70,30.00,29.87,5,2,7,0.00
2013-5-22,80.8,72.6,68.5,72.1,68.7,66.5,96,88,73,29.93,29.85,6,2,8,0.00
2013-5-23,77.1,71.0,65.9,70.8,67.5,64.4,95,89,78,29.92,29.75,8,4,12,0.04
2013-5-24,66.6,58.7,47.4,65.6,55.5,40.3,98,89,68,30.02,29.70,10,4,16,0.36
2013-5-25,62.3,54.4,47.5,42.7,39.9,35.2,80,60,38,30.08,29.98,10,6,22,0.00
2013-5-26,69.2,58.7,47.5,46.1,41.2,37.2,87,54,34,30.19,30.06,9,3,15,0.00
2013-5-27,71.3,59.2,42.7,54.8,46.4,39.2,93,66,34,30.26,30.17,6,1,8,0.00
2013-5-28,68.5,61.3,54.3,64.7,58.7,51.5,96,91,84,30.22,30.10,4,0,7,0.24
2013-5-29,86.0,73.8,64.3,71.3,66.2,60.8,93,78,58,30.12,30.05,5,2,8,0.00
2013-5-30,87.2,76.2,66.9,72.2,68.0,63.8,92,77,56,30.17,30.08,4,1,8,0.00
2013-5-31,87.6,76.7,67.9,71.0,68.3,65.8,95,77,54,30.15,30.02,5,2,8,0.00